Time;durP1;ratioP1;P1;durP2;ratioP2;P2;SDS_P1;SDS_P2;PMS_P1;PMS_P2;Temp;Humidity;BMP_temperature;BMP_pressure;BME280_temperature;BME280_humidity;BME280_pressure;Samples;Min_cycle;Max_cycle;Signal;HPM_P1;HPM_P2
2023/01/29 00:01:11;;;;;;;35.93;9.60;;;3.00;94.30;;;;;;5058288;28;20494;-58
2023/01/29 00:03:38;;;;;;;32.77;9.90;;;3.00;94.60;;;;;;5075905;28;20576;-58
2023/01/29 00:06:07;;;;;;;33.93;9.60;;;;;;;;;;5049263;28;20494;-58
2023/01/29 00:08:33;;;;;;;39.03;9.63;;;3.00;94.50;;;;;;5080967;28;20533;-58
2023/01/29 00:11:02;;;;;;;44.13;11.93;;;3.00;94.10;;;;;;5045099;27;20553;-58
2023/01/29 00:13:28;;;;;;;58.13;12.07;;;3.00;94.40;;;;;;5057622;28;20551;-59
2023/01/29 00:15:55;;;;;;;58.33;14.23;;;;;;;;;;5063874;27;20484;-58
2023/01/29 00:18:22;;;;;;;34.37;8.57;;;;;;;;;;5067386;27;20478;-58
2023/01/29 00:20:49;;;;;;;68.73;14.20;;;2.80;93.90;;;;;;5051924;28;20490;-58
2023/01/29 00:23:18;;;;;;;27.83;9.30;;;;;;;;;;5068259;27;20998;-58
2023/01/29 00:25:45;;;;;;;41.23;11.60;;;2.70;93.90;;;;;;5066579;27;21071;-59
2023/01/29 00:28:12;;;;;;;32.13;10.20;;;2.60;93.80;;;;;;5044253;28;21098;-59
2023/01/29 00:30:39;;;;;;;45.23;12.50;;;2.60;94.10;;;;;;5038889;28;20840;-59
2023/01/29 00:33:06;;;;;;;41.30;11.63;;;2.60;94.50;;;;;;5076575;28;20948;-59
2023/01/29 00:35:33;;;;;;;34.87;10.40;;;;;;;;;;5070628;28;20555;-59
2023/01/29 00:38:00;;;;;;;40.37;9.27;;;;;;;;;;5045462;28;21041;-59
2023/01/29 00:44:56;;;;;;;40.13;10.80;;;2.60;94.20;;;;;;5048879;28;20482;-59
2023/01/29 00:46:00;;;;;;;49.87;11.30;;;2.50;93.80;;;;;;5069399;27;20468;-59
2023/01/29 00:48:26;;;;;;;45.80;10.90;;;2.50;94.00;;;;;;5061584;28;20916;-58
2023/01/29 00:50:53;;;;;;;63.43;15.80;;;2.50;94.10;;;;;;5049639;28;20500;-59
2023/01/29 00:53:20;;;;;;;37.20;9.73;;;2.50;94.20;;;;;;5066770;28;20482;-59
2023/01/29 00:55:48;;;;;;;65.10;15.10;;;2.50;94.00;;;;;;5059197;28;20489;-59
2023/01/29 00:58:21;;;;;;;28.93;10.00;;;2.40;94.20;;;;;;5071187;28;21116;-59
2023/01/29 01:00:48;;;;;;;49.80;14.67;;;2.40;94.20;;;;;;5041852;28;20467;-59
2023/01/29 01:03:13;;;;;;;35.73;10.20;;;2.40;94.30;;;;;;5053534;28;20528;-59
2023/01/29 01:05:41;;;;;;;48.10;10.70;;;;;;;;;;5077206;28;21195;-59
2023/01/29 01:10:19;;;;;;;40.20;10.67;;;;;;;;;;5058830;28;20484;-59
2023/01/29 01:11:03;;;;;;;51.23;12.60;;;2.40;94.30;;;;;;5067373;28;21003;-59
2023/01/29 01:13:31;;;;;;;38.07;10.23;;;2.40;94.70;;;;;;5046520;28;20540;-59
2023/01/29 01:15:58;;;;;;;42.43;11.60;;;2.30;94.60;;;;;;5057227;28;20750;-59
2023/01/29 01:18:25;;;;;;;34.13;10.53;;;2.10;94.30;;;;;;5075547;28;20490;-58
2023/01/29 01:20:58;;;;;;;56.07;14.13;;;2.00;94.70;;;;;;5049671;28;20478;-59
2023/01/29 01:23:26;;;;;;;45.67;11.33;;;1.90;94.80;;;;;;5037153;28;21072;-59
2023/01/29 01:25:53;;;;;;;57.13;12.60;;;5.50;96.80;;;;;;5053556;28;20523;-59
2023/01/29 01:28:21;;;;;;;39.63;9.80;;;1.90;95.00;;;;;;5064917;28;20528;-59
2023/01/29 01:30:48;;;;;;;71.90;16.90;;;1.80;94.90;;;;;;5049670;28;20483;-58
2023/01/29 01:33:14;;;;;;;41.30;11.20;;;1.80;95.10;;;;;;5064952;28;20492;-58
2023/01/29 01:35:42;;;;;;;27.23;8.63;;;;;;;;;;5066111;28;20587;-58
2023/01/29 01:38:09;;;;;;;41.90;9.70;;;;;;;;;;5062130;28;20487;-58
2023/01/29 01:40:36;;;;;;;43.63;10.30;;;;;;;;;;5052481;28;20503;-58
2023/01/29 01:43:03;;;;;;;27.10;7.97;;;1.60;95.20;;;;;;5054114;28;20496;-58
2023/01/29 01:45:32;;;;;;;31.20;9.40;;;;;;;;;;5077534;28;20539;-59
2023/01/29 01:48:01;;;;;;;41.23;10.60;;;;;;;;;;5077370;28;20512;-59
2023/01/29 01:50:31;;;;;;;38.53;10.80;;;;;;;;;;5045406;28;20758;-59
2023/01/29 01:53:00;;;;;;;37.70;11.27;;;;;;;;;;5069815;28;20483;-59
2023/01/29 01:55:28;;;;;;;29.80;9.37;;;;;;;;;;5054377;28;20538;-59
2023/01/29 01:58:01;;;;;;;54.43;12.23;;;1.50;95.90;;;;;;5067015;28;20513;-58
2023/01/29 02:00:28;;;;;;;42.80;10.83;;;;;;;;;;5069953;28;20485;-59
2023/01/29 02:11:19;;;;;;;43.83;8.87;;;1.80;95.30;;;;;;5061411;28;20485;-58
2023/01/29 02:13:52;;;;;;;59.57;14.40;;;;;;;;;;5064675;28;21003;-58
2023/01/29 02:16:19;;;;;;;26.87;9.70;;;;;;;;;;5049143;28;20495;-58
2023/01/29 02:18:47;;;;;;;55.83;13.80;;;1.90;95.80;;;;;;5076851;28;20822;-58
2023/01/29 02:21:41;;;;;;;32.10;9.77;;;2.00;95.80;;;;;;5062152;28;20480;-58
2023/01/29 02:24:31;;;;;;;36.47;10.10;;;1.90;95.30;;;;;;5050416;28;20475;-58
2023/01/29 02:27:03;;;;;;;61.87;13.20;;;;;;;;;;5047612;28;21071;-58
2023/01/29 02:29:36;;;;;;;40.97;10.07;;;;;;;;;;5058639;28;20474;-59
2023/01/29 02:32:19;;;;;;;48.50;11.57;;;2.00;95.30;;;;;;5079680;28;20481;-59
2023/01/29 02:37:39;;;;;;;41.77;11.43;;;2.10;95.50;;;;;;5052271;28;20556;-59
2023/01/29 02:40:10;;;;;;;48.73;11.90;;;;;;;;;;5051047;28;20481;-58
2023/01/29 02:42:42;;;;;;;49.43;11.07;;;2.10;95.50;;;;;;5063566;28;20487;-59
2023/01/29 02:45:15;;;;;;;97.23;25.00;;;2.00;95.10;;;;;;5054062;28;20487;-58
2023/01/29 02:47:48;;;;;;;38.87;10.47;;;;;;;;;;5042649;28;20641;-58
2023/01/29 02:50:19;;;;;;;36.27;10.40;;;2.00;95.60;;;;;;5056075;28;20485;-58
2023/01/29 02:52:55;;;;;;;63.93;14.67;;;2.00;95.30;;;;;;5047113;28;20556;-58
2023/01/29 02:55:24;;;;;;;33.73;9.63;;;;;;;;;;5063498;28;20975;-58
2023/01/29 02:57:56;;;;;;;72.00;15.13;;;2.00;95.60;;;;;;5058811;28;20477;-58
2023/01/29 03:00:29;;;;;;;43.20;11.07;;;2.00;95.40;;;;;;5084514;28;20484;-59
2023/01/29 03:03:00;;;;;;;47.77;13.33;;;2.00;95.30;;;;;;5060257;28;20580;-59
2023/01/29 03:05:31;;;;;;;32.57;8.40;;;1.90;94.80;;;;;;5053375;28;20496;-58
2023/01/29 03:08:02;;;;;;;47.43;12.03;;;1.80;94.70;;;;;;5079272;28;20479;-59
2023/01/29 03:10:35;;;;;;;32.17;9.90;;;1.50;94.50;;;;;;5036332;28;20486;-59
2023/01/29 03:13:06;;;;;;;36.63;9.97;;;2.80;95.40;;;;;;5068198;28;20481;-59
2023/01/29 03:15:41;;;;;;;40.33;10.23;;;;;;;;;;5063195;28;20892;-59
2023/01/29 03:18:10;;;;;;;41.17;11.40;;;;;;;;;;5054791;28;20486;-59
2023/01/29 03:20:46;;;;;;;51.57;11.20;;;1.50;95.10;;;;;;5044065;28;20483;-58
2023/01/29 03:23:22;;;;;;;31.63;9.03;;;0.90;95.00;;;;;;5075936;28;20811;-58
2023/01/29 03:34:15;;;;;;;33.17;9.63;;;0.90;95.10;;;;;;5056176;28;20507;-58
2023/01/29 03:36:46;;;;;;;57.33;14.03;;;0.90;95.60;;;;;;5065368;28;20507;-58
2023/01/29 03:39:15;;;;;;;32.13;9.93;;;0.80;95.60;;;;;;5068923;28;20760;-59
2023/01/29 03:41:46;;;;;;;34.37;10.43;;;;;;;;;;5048863;28;20486;-58
2023/01/29 03:44:16;;;;;;;54.93;12.97;;;0.90;95.20;;;;;;5069459;28;20485;-58
2023/01/29 03:46:52;;;;;;;78.10;16.13;;;0.90;95.00;;;;;;5063886;28;20527;-58
2023/01/29 03:49:22;;;;;;;41.83;10.03;;;;;;;;;;5067483;28;21145;-58
2023/01/29 03:51:55;;;;;;;60.10;14.00;;;0.90;94.60;;;;;;5064279;28;20474;-59
2023/01/29 03:54:29;;;;;;;48.90;11.37;;;0.90;94.60;;;;;;5057137;28;20475;-58
2023/01/29 03:57:00;;;;;;;74.73;15.93;;;0.80;94.50;;;;;;5053074;28;20478;-59
2023/01/29 03:59:36;;;;;;;41.00;9.93;;;0.80;94.60;;;;;;5047163;28;20727;-58
2023/01/29 04:02:08;;;;;;;45.47;11.87;;;0.70;94.60;;;;;;5051561;28;20494;-58
2023/01/29 04:04:37;;;;;;;34.13;8.80;;;;;;;;;;5064711;28;21300;-59
2023/01/29 04:07:10;;;;;;;50.67;12.00;;;0.50;94.90;;;;;;5055045;28;20478;-59
2023/01/29 04:09:42;;;;;;;51.10;10.87;;;0.60;95.20;;;;;;5043495;28;20572;-59
2023/01/29 04:12:09;;;;;;;33.93;8.70;;;;;;;;;;5040158;28;20493;-59
2023/01/29 04:14:38;;;;;;;42.93;9.80;;;;;;;;;;5066277;28;20563;-59
2023/01/29 04:17:12;;;;;;;47.20;11.73;;;0.40;95.60;;;;;;5047558;28;20483;-59
2023/01/29 04:19:39;;;;;;;43.97;10.70;;;0.20;95.40;;;;;;5050917;28;20998;-59
2023/01/29 04:22:15;;;;;;;46.13;10.83;;;0.20;95.60;;;;;;5076469;28;20638;-58
2023/01/29 04:24:42;;;;;;;40.20;10.70;;;;;;;;;;5038185;28;21021;-59
2023/01/29 04:27:23;;;;;;;37.97;9.13;;;0.30;95.10;;;;;;5079193;28;20483;-59
2023/01/29 04:29:57;;;;;;;39.27;11.50;;;;;;;;;;5071140;28;20474;-59
2023/01/29 04:32:30;;;;;;;31.67;8.93;;;0.20;94.60;;;;;;5053293;28;20582;-59
2023/01/29 04:35:01;;;;;;;66.97;14.13;;;0.20;94.50;;;;;;5064393;28;20474;-59
2023/01/29 04:37:36;;;;;;;37.80;9.90;;;;;;;;;;5051548;28;20568;-59
2023/01/29 04:40:08;;;;;;;44.07;10.90;;;;;;;;;;5042221;28;20829;-59
2023/01/29 04:42:41;;;;;;;49.87;10.70;;;-0.10;94.30;;;;;;5075899;28;20560;-59
2023/01/29 04:45:12;;;;;;;37.57;10.60;;;;;;;;;;5039415;28;20471;-58
2023/01/29 04:47:51;;;;;;;43.83;11.20;;;-0.80;94.60;;;;;;5047602;28;20486;-59
2023/01/29 04:50:22;;;;;;;32.57;9.17;;;;;;;;;;5071561;28;20465;-58
2023/01/29 04:52:56;;;;;;;68.13;15.60;;;-1.20;95.40;;;;;;5055009;28;20503;-58
2023/01/29 04:55:32;;;;;;;32.27;10.30;;;-1.30;95.40;;;;;;5054094;28;20493;-58
2023/01/29 04:58:03;;;;;;;42.63;12.00;;;;;;;;;;5054974;28;20477;-58
2023/01/29 05:00:34;;;;;;;48.07;10.83;;;-1.10;95.50;;;;;;5077062;28;20744;-58
2023/01/29 05:03:02;;;;;;;28.90;9.20;;;-0.90;95.60;;;;;;5047205;28;20478;-58
2023/01/29 05:05:31;;;;;;;38.80;10.67;;;-0.90;95.40;;;;;;5056505;28;21225;-58
2023/01/29 05:07:58;;;;;;;63.73;14.53;;;-1.00;95.40;;;;;;5057705;28;20501;-58
2023/01/29 05:10:26;;;;;;;31.20;8.57;;;-1.20;95.50;;;;;;5072810;28;20479;-58
2023/01/29 05:12:58;;;;;;;54.67;12.93;;;-1.30;95.70;;;;;;5057559;28;20473;-58
2023/01/29 05:15:29;;;;;;;30.20;9.20;;;;;;;;;;5046186;28;20540;-58
2023/01/29 05:18:01;;;;;;;52.87;15.73;;;-1.30;95.80;;;;;;5056359;28;20910;-58
2023/01/29 05:20:32;;;;;;;39.33;12.00;;;-1.10;95.80;;;;;;5068087;28;20478;-58
2023/01/29 05:22:58;;;;;;;42.13;11.70;;;-1.20;94.90;;;;;;5066404;28;20490;-58
2023/01/29 05:25:27;;;;;;;45.57;10.10;;;-1.50;95.10;;;;;;5070897;28;20522;-58
2023/01/29 05:28:03;;;;;;;56.20;16.23;;;;;;;;;;5048445;28;21011;-58
2023/01/29 05:30:30;;;;;;;30.87;9.63;;;-1.60;95.90;;;;;;5065188;28;20474;-58
2023/01/29 05:32:56;;;;;;;30.93;11.00;;;-1.50;96.00;;;;;;5081275;28;20483;-58
2023/01/29 05:35:23;;;;;;;28.53;10.73;;;-1.40;95.80;;;;;;5073381;28;20982;-58
2023/01/29 05:37:51;;;;;;;52.23;14.20;;;-1.30;95.60;;;;;;5040017;28;20499;-58
2023/01/29 05:40:18;;;;;;;48.37;11.10;;;-1.30;95.20;;;;;;5079932;28;20475;-58
2023/01/29 05:42:44;;;;;;;39.27;10.77;;;-1.20;95.30;;;;;;5056824;28;20960;-58
2023/01/29 05:45:11;;;;;;;44.07;11.83;;;-1.20;95.20;;;;;;5070328;28;20486;-58
2023/01/29 05:47:38;;;;;;;56.63;11.83;;;-1.20;95.10;;;;;;5060970;28;20668;-58
2023/01/29 05:50:05;;;;;;;33.63;9.37;;;-1.20;95.10;;;;;;5069431;28;20485;-58
2023/01/29 05:52:32;;;;;;;33.53;8.97;;;;;;;;;;5045541;28;20502;-58
2023/01/29 05:55:00;;;;;;;45.67;11.30;;;-1.20;94.80;;;;;;5056791;28;20867;-58
2023/01/29 05:57:27;;;;;;;30.07;8.90;;;;;;;;;;5034211;28;20669;-58
2023/01/29 05:59:54;;;;;;;58.83;14.33;;;;;;;;;;5057419;28;20611;-58
2023/01/29 06:02:22;;;;;;;52.27;12.77;;;;;;;;;;5073611;28;20617;-58
2023/01/29 06:04:50;;;;;;;65.00;16.53;;;-1.20;94.60;;;;;;5057066;28;20492;-58
2023/01/29 06:07:17;;;;;;;34.23;10.03;;;;;;;;;;5061030;28;20491;-58
2023/01/29 06:09:44;;;;;;;50.67;12.87;;;-1.50;94.00;;;;;;5049729;28;20546;-58
2023/01/29 06:12:12;;;;;;;31.80;10.40;;;-1.50;94.30;;;;;;5080192;28;20475;-58
2023/01/29 06:14:38;;;;;;;43.60;12.57;;;-1.60;94.30;;;;;;5054495;28;20470;-58
2023/01/29 06:17:05;;;;;;;34.70;11.10;;;-1.70;94.50;;;;;;5069668;28;20490;-58
2023/01/29 06:19:32;;;;;;;43.70;10.63;;;-1.80;94.90;;;;;;5065933;28;21057;-58
2023/01/29 06:21:59;;;;;;;59.77;14.77;;;-1.40;95.40;;;;;;5051556;28;20548;-58
2023/01/29 06:24:26;;;;;;;38.00;10.40;;;;;;;;;;5053432;28;20532;-58
2023/01/29 06:26:53;;;;;;;79.50;20.50;;;;;;;;;;5066076;28;20548;-58
2023/01/29 06:29:21;;;;;;;31.07;9.07;;;-2.00;95.50;;;;;;5056777;28;20848;-59
2023/01/29 06:31:48;;;;;;;70.97;19.13;;;;;;;;;;5082777;27;20685;-58
2023/01/29 06:34:15;;;;;;;34.17;11.30;;;;;;;;;;5061224;28;20927;-58
2023/01/29 06:36:42;;;;;;;61.43;15.30;;;;;;;;;;5054617;28;20518;-58
2023/01/29 06:39:09;;;;;;;30.80;9.47;;;-1.70;95.20;;;;;;5044057;28;20849;-58
2023/01/29 06:41:36;;;;;;;41.57;12.97;;;-1.60;95.10;;;;;;5074111;28;20489;-58
2023/01/29 06:44:02;;;;;;;39.73;11.17;;;-1.90;94.40;;;;;;5062067;28;21201;-58
2023/01/29 06:46:31;;;;;;;35.70;11.83;;;;;;;;;;5048827;28;20540;-58
2023/01/29 06:48:59;;;;;;;54.40;12.53;;;;;;;;;;5055609;28;20536;-58
2023/01/29 06:51:25;;;;;;;43.87;10.97;;;-2.10;95.40;;;;;;5071395;28;20568;-58
2023/01/29 06:53:54;;;;;;;55.57;14.47;;;-2.00;95.10;;;;;;5066973;28;20474;-58
2023/01/29 06:56:22;;;;;;;48.47;11.87;;;;;;;;;;5059160;28;20533;-58
2023/01/29 06:58:49;;;;;;;75.63;16.60;;;;;;;;;;5075144;28;20506;-59
2023/01/29 07:01:16;;;;;;;39.27;11.63;;;-1.90;95.00;;;;;;5056838;27;20549;-58
2023/01/29 07:03:44;;;;;;;39.30;9.87;;;;;;;;;;5063154;27;20490;-58
2023/01/29 07:06:11;;;;;;;54.17;12.73;;;;;;;;;;5064481;27;20486;-58
2023/01/29 07:08:38;;;;;;;48.90;11.87;;;;;;;;;;5074259;27;21852;-58
2023/01/29 07:11:06;;;;;;;45.73;11.93;;;-2.20;94.90;;;;;;5054391;28;20483;-58
2023/01/29 07:13:33;;;;;;;38.50;10.00;;;-2.30;95.40;;;;;;5049174;28;20493;-58
2023/01/29 07:16:00;;;;;;;57.33;12.10;;;-2.30;95.60;;;;;;5057299;28;20485;-58
2023/01/29 07:18:27;;;;;;;48.97;12.60;;;-2.40;95.70;;;;;;5058813;28;20483;-58
2023/01/29 07:20:56;;;;;;;79.27;15.30;;;-2.30;95.90;;;;;;5047238;28;22086;-58
2023/01/29 07:23:23;;;;;;;42.40;11.50;;;-2.20;95.90;;;;;;5068162;28;20877;-58
2023/01/29 07:25:49;;;;;;;67.67;14.97;;;-2.10;95.80;;;;;;5068658;28;20630;-58
2023/01/29 07:28:16;;;;;;;50.77;11.47;;;;;;;;;;5052401;28;20559;-58
2023/01/29 07:30:43;;;;;;;54.50;12.90;;;;;;;;;;5054043;28;20527;-58
2023/01/29 07:33:11;;;;;;;60.47;16.20;;;-1.80;95.60;;;;;;5065802;28;20488;-58
2023/01/29 07:35:39;;;;;;;45.67;11.07;;;;;;;;;;5062571;28;20481;-59
2023/01/29 07:38:07;;;;;;;36.27;11.90;;;;;;;;;;5059047;28;20518;-58
2023/01/29 07:40:34;;;;;;;42.90;11.33;;;-1.50;96.00;;;;;;5056633;28;20483;-58
2023/01/29 07:43:02;;;;;;;56.40;12.20;;;-1.40;95.70;;;;;;5068093;28;21062;-58
2023/01/29 07:45:30;;;;;;;60.93;14.10;;;;;;;;;;5049730;28;20475;-58
2023/01/29 07:48:00;;;;;;;51.30;11.60;;;;;;;;;;5046438;28;20882;-58
2023/01/29 07:50:27;;;;;;;40.03;11.57;;;-1.70;95.20;;;;;;5068728;28;20529;-58
2023/01/29 07:52:54;;;;;;;67.53;15.80;;;-1.60;95.20;;;;;;5070218;28;20510;-58
2023/01/29 07:55:23;;;;;;;44.17;11.80;;;;;;;;;;5060211;28;20483;-58
2023/01/29 07:57:56;;;;;;;63.67;15.77;;;-1.60;94.80;;;;;;5053283;28;20473;-58
2023/01/29 08:00:23;;;;;;;48.53;12.30;;;-1.50;95.00;;;;;;5056132;28;20507;-58
2023/01/29 08:02:50;;;;;;;69.63;15.93;;;-1.00;95.70;;;;;;5048007;28;20482;-58
2023/01/29 08:05:16;;;;;;;28.30;9.33;;;-1.40;95.60;;;;;;5050065;28;21891;-58
2023/01/29 08:07:43;;;;;;;52.33;14.57;;;-1.10;96.00;;;;;;5046956;28;21007;-58
2023/01/29 08:10:11;;;;;;;53.90;14.23;;;-0.90;95.50;;;;;;5045599;28;20485;-58
2023/01/29 08:12:39;;;;;;;57.20;15.70;;;-0.50;95.60;;;;;;5058223;28;20494;-59
2023/01/29 08:15:06;;;;;;;52.37;16.00;;;0.10;95.60;;;;;;5069804;28;20994;-59
2023/01/29 08:17:33;;;;;;;50.67;16.63;;;;;;;;;;5051965;28;20487;-59
2023/01/29 08:20:00;;;;;;;60.67;15.30;;;;;;;;;;5055887;28;20481;-58
2023/01/29 08:22:27;;;;;;;66.97;16.50;;;2.40;94.90;;;;;;5061288;28;20493;-59
2023/01/29 08:24:54;;;;;;;75.20;20.13;;;3.60;94.10;;;;;;5051183;28;20491;-59
2023/01/29 08:27:20;;;;;;;39.67;14.90;;;4.50;92.20;;;;;;5068317;28;20487;-58
2023/01/29 08:29:48;;;;;;;63.93;18.63;;;5.20;90.60;;;;;;5048774;28;21042;-59
2023/01/29 08:32:15;;;;;;;27.50;10.90;;;;;;;;;;5059486;28;20548;-59
2023/01/29 08:34:42;;;;;;;49.57;13.07;;;;;;;;;;5049813;28;20495;-59
2023/01/29 08:37:09;;;;;;;39.83;12.73;;;7.50;88.40;;;;;;5045111;28;21066;-59
2023/01/29 08:39:35;;;;;;;41.93;13.73;;;8.30;85.80;;;;;;5056414;28;20497;-59
2023/01/29 08:42:03;;;;;;;35.27;13.30;;;;;;;;;;5077121;28;20479;-59
2023/01/29 08:44:32;;;;;;;32.30;14.90;;;9.30;83.30;;;;;;5043563;28;20494;-59
2023/01/29 08:47:02;;;;;;;52.13;19.23;;;10.00;80.40;;;;;;5056063;27;20553;-59
2023/01/29 08:49:29;;;;;;;40.50;15.03;;;10.30;78.80;;;;;;5061679;27;20540;-59
2023/01/29 08:51:56;;;;;;;36.73;17.13;;;;;;;;;;5072858;28;20501;-59
2023/01/29 08:54:23;;;;;;;34.57;13.13;;;;;;;;;;5066192;28;21052;-59
2023/01/29 08:56:50;;;;;;;56.90;24.47;;;10.10;72.80;;;;;;5053844;28;20485;-59
2023/01/29 08:59:17;;;;;;;26.33;13.13;;;9.20;73.30;;;;;;5050731;28;20490;-59
2023/01/29 09:01:44;;;;;;;23.70;13.73;;;8.40;74.30;;;;;;5077848;28;20477;-59
2023/01/29 09:04:12;;;;;;;29.77;13.70;;;7.60;75.60;;;;;;5053107;28;20888;-59
2023/01/29 09:06:39;;;;;;;33.20;17.00;;;;;;;;;;5051801;28;20891;-59
2023/01/29 09:09:07;;;;;;;34.17;14.03;;;6.40;78.60;;;;;;5055630;28;20485;-59
2023/01/29 09:11:33;;;;;;;27.00;13.60;;;5.90;79.80;;;;;;5068762;28;20708;-59
2023/01/29 09:14:00;;;;;;;32.70;15.97;;;5.50;80.70;;;;;;5055743;28;20939;-59
2023/01/29 09:16:27;;;;;;;33.93;15.70;;;4.90;82.00;;;;;;5066148;28;20478;-59
2023/01/29 09:18:54;;;;;;;49.50;20.80;;;4.30;82.80;;;;;;5064740;28;20485;-59
2023/01/29 09:21:22;;;;;;;31.47;13.53;;;;;;;;;;5051554;28;20568;-59
2023/01/29 09:23:49;;;;;;;58.20;16.17;;;3.70;86.40;;;;;;5071681;28;20491;-59
2023/01/29 09:26:15;;;;;;;40.00;14.03;;;3.60;86.80;;;;;;5057075;28;20991;-59
2023/01/29 09:28:42;;;;;;;40.17;15.67;;;3.60;88.20;;;;;;5054792;28;20846;-59
2023/01/29 09:31:09;;;;;;;37.77;14.60;;;;;;;;;;5054215;28;20482;-59
2023/01/29 09:33:36;;;;;;;46.00;16.47;;;;;;;;;;5062258;28;20491;-59
2023/01/29 09:36:03;;;;;;;35.13;15.43;;;3.50;88.60;;;;;;5054084;28;20498;-59
2023/01/29 09:38:32;;;;;;;33.60;13.93;;;;;;;;;;5051521;28;20471;-59
2023/01/29 09:41:04;;;;;;;48.23;16.30;;;;;;;;;;5050978;28;20556;-59
2023/01/29 09:43:42;;;;;;;43.33;14.87;;;3.80;90.30;;;;;;5042480;28;20834;-59
2023/01/29 09:46:15;;;;;;;42.60;15.33;;;;;;;;;;5048736;28;20496;-58
2023/01/29 09:48:43;;;;;;;40.50;15.50;;;3.80;90.60;;;;;;5057674;28;20548;-59
2023/01/29 09:51:16;;;;;;;37.60;12.90;;;4.10;90.70;;;;;;5080737;28;20537;-59
2023/01/29 09:53:53;;;;;;;37.50;14.23;;;4.20;90.10;;;;;;5059101;28;20477;-59
2023/01/29 09:56:25;;;;;;;23.37;12.97;;;4.20;90.40;;;;;;5064190;28;20851;-59
2023/01/29 09:58:52;;;;;;;41.13;17.67;;;4.20;90.30;;;;;;5055223;28;20481;-59
2023/01/29 10:01:27;;;;;;;30.10;13.57;;;4.10;90.00;;;;;;5083918;28;20473;-59
2023/01/29 10:04:07;;;;;;;33.60;15.60;;;4.20;90.70;;;;;;5035634;28;20525;-59
2023/01/29 10:06:46;;;;;;;44.00;16.53;;;4.20;90.30;;;;;;5056623;28;20471;-59
2023/01/29 10:09:37;;;;;;;23.90;13.30;;;4.40;90.90;;;;;;5047440;28;20484;-58
2023/01/29 10:12:17;;;;;;;41.00;13.93;;;4.70;90.80;;;;;;5044900;28;20475;-58
2023/01/29 10:14:53;;;;;;;34.83;16.50;;;4.80;89.60;;;;;;5046098;28;20632;-59
2023/01/29 10:17:32;;;;;;;22.00;13.13;;;4.50;88.60;;;;;;5060337;28;20481;-59
2023/01/29 10:20:19;;;;;;;26.70;12.57;;;4.40;88.90;;;;;;5060683;28;20490;-58
2023/01/29 10:22:59;;;;;;;31.23;13.37;;;4.20;89.20;;;;;;5031118;28;20480;-60
2023/01/29 10:25:27;;;;;;;25.97;14.20;;;4.30;90.60;;;;;;5041679;28;20987;-59
2023/01/29 10:27:56;;;;;;;37.33;16.60;;;4.30;90.60;;;;;;5048692;28;20491;-58
2023/01/29 10:30:32;;;;;;;18.93;11.87;;;4.00;89.70;;;;;;5066691;28;20566;-59
2023/01/29 10:33:03;;;;;;;29.37;13.83;;;3.70;89.80;;;;;;5045317;28;20477;-59
2023/01/29 10:35:32;;;;;;;38.00;13.40;;;3.50;89.60;;;;;;5047838;28;20546;-59
2023/01/29 10:38:12;;;;;;;34.90;13.20;;;3.40;90.30;;;;;;5039370;28;20532;-59
2023/01/29 10:40:46;;;;;;;30.23;11.60;;;3.40;90.50;;;;;;5043273;28;20478;-59
2023/01/29 10:43:21;;;;;;;17.03;9.03;;;3.50;90.70;;;;;;5056702;28;20514;-59
2023/01/29 10:45:57;;;;;;;54.70;16.83;;;3.60;90.50;;;;;;5061742;28;20514;-59
2023/01/29 10:48:44;;;;;;;19.83;10.47;;;3.70;90.70;;;;;;5043351;28;20497;-60
2023/01/29 10:51:17;;;;;;;23.80;11.07;;;;;;;;;;5056957;28;20481;-59
2023/01/29 10:53:56;;;;;;;34.33;13.40;;;3.60;90.30;;;;;;5080527;28;20499;-59
2023/01/29 10:56:40;;;;;;;24.27;11.07;;;3.90;90.60;;;;;;5056594;28;20490;-59
2023/01/29 10:59:18;;;;;;;27.93;12.07;;;3.80;90.30;;;;;;5050776;28;20482;-59
2023/01/29 11:01:45;;;;;;;34.40;13.67;;;3.70;90.10;;;;;;5028225;28;20472;-59
2023/01/29 11:04:13;;;;;;;21.73;9.63;;;3.60;90.20;;;;;;5049359;28;20482;-59
2023/01/29 11:06:40;;;;;;;48.67;14.37;;;3.40;90.40;;;;;;5037836;28;20878;-59
2023/01/29 11:09:12;;;;;;;24.07;10.77;;;3.40;89.80;;;;;;5076356;28;21016;-59
2023/01/29 11:11:45;;;;;;;24.50;10.03;;;3.20;90.20;;;;;;5030694;28;20545;-59
2023/01/29 11:14:16;;;;;;;22.90;8.90;;;3.20;90.90;;;;;;5074556;28;20519;-58
2023/01/29 11:16:46;;;;;;;30.60;11.67;;;3.30;90.50;;;;;;5066932;28;20481;-59
2023/01/29 11:19:13;;;;;;;23.03;9.43;;;3.40;91.10;;;;;;5071425;28;20474;-59
2023/01/29 11:21:56;;;;;;;23.40;10.00;;;3.50;90.60;;;;;;5062248;28;20486;-59
2023/01/29 11:24:23;;;;;;;21.97;9.50;;;3.40;90.10;;;;;;5053248;28;20472;-59
2023/01/29 11:26:53;;;;;;;59.43;17.03;;;3.30;90.00;;;;;;5067335;28;20501;-59
2023/01/29 11:29:39;;;;;;;17.23;8.50;;;3.20;90.60;;;;;;5058672;28;20540;-59
2023/01/29 11:32:11;;;;;;;21.70;10.67;;;3.40;91.10;;;;;;5052588;28;20477;-59
2023/01/29 11:34:57;;;;;;;39.13;13.97;;;3.30;90.10;;;;;;5059443;28;20486;-59
2023/01/29 11:37:31;;;;;;;20.33;8.50;;;3.30;90.10;;;;;;5050141;28;20466;-59
2023/01/29 11:39:57;;;;;;;37.20;12.47;;;3.40;90.40;;;;;;5049810;28;20490;-59
2023/01/29 11:42:32;;;;;;;27.63;11.07;;;3.40;90.40;;;;;;5046829;28;20548;-59
2023/01/29 11:44:59;;;;;;;37.70;12.50;;;3.40;90.50;;;;;;5036973;28;20639;-59
2023/01/29 11:47:28;;;;;;;22.90;7.83;;;3.50;90.60;;;;;;5067470;28;20478;-58
2023/01/29 11:49:56;;;;;;;36.37;11.10;;;3.60;91.30;;;;;;5070799;28;21005;-59
2023/01/29 11:52:25;;;;;;;25.90;10.07;;;3.70;90.40;;;;;;5051555;28;21057;-59
2023/01/29 11:54:56;;;;;;;56.43;16.80;;;3.90;90.30;;;;;;5044875;28;20697;-59
2023/01/29 11:57:28;;;;;;;22.10;10.90;;;3.80;90.60;;;;;;5030983;28;20540;-59
2023/01/29 11:59:57;;;;;;;46.50;14.47;;;3.80;90.50;;;;;;5068964;28;20488;-59
2023/01/29 12:02:34;;;;;;;29.50;9.90;;;4.20;91.20;;;;;;5057224;28;20469;-59
2023/01/29 12:05:05;;;;;;;38.00;12.93;;;4.10;90.50;;;;;;5053604;28;20841;-59
2023/01/29 12:07:33;;;;;;;25.07;7.33;;;4.40;91.60;;;;;;5032996;28;20537;-59
2023/01/29 12:10:00;;;;;;;24.00;7.40;;;4.60;90.60;;;;;;5054618;28;20476;-59
2023/01/29 12:12:36;;;;;;;25.57;7.40;;;4.90;90.70;;;;;;5074996;28;20477;-59
2023/01/29 12:15:23;;;;;;;24.73;8.40;;;5.10;90.00;;;;;;5056223;28;20478;-59
2023/01/29 12:18:01;;;;;;;44.27;14.20;;;5.20;90.30;;;;;;5035228;28;21021;-59
2023/01/29 12:20:35;;;;;;;23.27;9.90;;;5.30;89.70;;;;;;5069196;28;20569;-58
2023/01/29 12:23:11;;;;;;;20.63;8.03;;;5.40;90.10;;;;;;5047793;28;20486;-59
2023/01/29 12:25:44;;;;;;;25.87;9.70;;;5.60;89.70;;;;;;5060556;28;20552;-59
2023/01/29 12:28:23;;;;;;;21.93;8.23;;;5.70;89.70;;;;;;5072688;28;21090;-59
2023/01/29 12:31:02;;;;;;;29.13;10.73;;;5.90;89.40;;;;;;5040661;28;20811;-59
2023/01/29 12:33:38;;;;;;;22.50;8.80;;;6.00;89.30;;;;;;5052213;28;20999;-59
2023/01/29 12:36:12;;;;;;;22.73;7.87;;;6.20;89.40;;;;;;5060290;28;20484;-59
2023/01/29 12:38:39;;;;;;;25.90;12.07;;;6.20;88.60;;;;;;5079064;28;20477;-59
2023/01/29 12:41:12;;;;;;;28.30;11.87;;;6.30;88.20;;;;;;5061949;28;20585;-59
2023/01/29 12:43:44;;;;;;;24.87;11.00;;;6.20;88.30;;;;;;5057395;28;20469;-59
2023/01/29 12:46:19;;;;;;;32.27;14.00;;;;;;;;;;5059075;27;20918;-59
2023/01/29 12:48:47;;;;;;;42.13;15.80;;;5.50;88.20;;;;;;5030002;28;21153;-59
2023/01/29 12:51:18;;;;;;;23.13;9.57;;;5.40;90.10;;;;;;5064695;28;20636;-59
2023/01/29 12:53:52;;;;;;;30.83;12.17;;;5.00;89.50;;;;;;5040096;28;20495;-59
2023/01/29 12:56:27;;;;;;;21.80;10.73;;;5.40;90.00;;;;;;5065385;28;20486;-59
2023/01/29 12:58:57;;;;;;;42.50;13.90;;;5.50;90.40;;;;;;5056646;28;20575;-59
2023/01/29 13:01:30;;;;;;;19.03;8.83;;;5.70;90.20;;;;;;5071967;28;20509;-59
2023/01/29 13:04:01;;;;;;;53.00;17.60;;;5.90;90.00;;;;;;5043986;28;20483;-59
2023/01/29 13:06:32;;;;;;;36.17;11.00;;;6.80;90.00;;;;;;5038375;28;20494;-59
2023/01/29 13:09:02;;;;;;;32.23;13.27;;;5.40;87.50;;;;;;5046055;28;20532;-59
2023/01/29 13:11:37;;;;;;;28.33;11.07;;;5.20;89.60;;;;;;5060530;28;20487;-59
2023/01/29 13:14:13;;;;;;;28.43;10.13;;;5.30;90.30;;;;;;5063045;27;20867;-59
2023/01/29 13:16:43;;;;;;;51.63;14.67;;;5.40;90.00;;;;;;5043602;28;20491;-59
2023/01/29 13:19:20;;;;;;;24.03;7.97;;;5.50;90.10;;;;;;5041318;28;20529;-59
2023/01/29 13:21:47;;;;;;;49.07;16.10;;;5.40;89.30;;;;;;5042672;28;20871;-59
2023/01/29 13:24:17;;;;;;;27.53;11.77;;;5.30;90.00;;;;;;5047313;28;20529;-59
2023/01/29 13:26:45;;;;;;;72.43;20.47;;;5.30;90.30;;;;;;5044059;28;20871;-59
2023/01/29 13:29:22;;;;;;;25.87;11.30;;;5.30;90.00;;;;;;5049754;28;20482;-59
2023/01/29 13:31:51;;;;;;;45.67;16.33;;;5.30;90.00;;;;;;5068518;27;20915;-59
2023/01/29 13:34:23;;;;;;;28.47;11.60;;;5.30;90.20;;;;;;5053626;28;20548;-59
2023/01/29 13:36:52;;;;;;;71.33;19.93;;;5.10;90.00;;;;;;5041045;28;20909;-59
2023/01/29 13:39:25;;;;;;;28.90;11.60;;;5.10;90.20;;;;;;5051736;28;20982;-58